sensor_id;sensor_type;location;lat;lon;timestamp;P1;durP1;ratioP1;P2;durP2;ratioP2
2966;SDS011;1493;51.496;7.210;2023-04-03T00:00:31;8.93;;;4.70;;
2966;SDS011;1493;51.496;7.210;2023-04-03T00:02:58;7.87;;;5.90;;
2966;SDS011;1493;51.496;7.210;2023-04-03T00:05:26;7.63;;;5.40;;
2966;SDS011;1493;51.496;7.210;2023-04-03T00:07:53;6.70;;;5.40;;
2966;SDS011;1493;51.496;7.210;2023-04-03T00:10:20;8.10;;;5.60;;
2966;SDS011;1493;51.496;7.210;2023-04-03T00:12:47;9.20;;;5.80;;
2966;SDS011;1493;51.496;7.210;2023-04-03T00:15:14;9.13;;;6.37;;
2966;SDS011;1493;51.496;7.210;2023-04-03T00:17:41;6.93;;;5.13;;
2966;SDS011;1493;51.496;7.210;2023-04-03T00:20:08;7.40;;;4.80;;
2966;SDS011;1493;51.496;7.210;2023-04-03T00:22:37;8.50;;;6.07;;
2966;SDS011;1493;51.496;7.210;2023-04-03T00:25:04;11.33;;;6.53;;
2966;SDS011;1493;51.496;7.210;2023-04-03T00:27:31;8.10;;;5.93;;
2966;SDS011;1493;51.496;7.210;2023-04-03T00:29:58;11.53;;;5.80;;
2966;SDS011;1493;51.496;7.210;2023-04-03T00:32:25;10.40;;;6.23;;
2966;SDS011;1493;51.496;7.210;2023-04-03T00:34:51;7.23;;;5.40;;
2966;SDS011;1493;51.496;7.210;2023-04-03T00:37:18;7.70;;;5.70;;
2966;SDS011;1493;51.496;7.210;2023-04-03T00:39:47;6.20;;;5.10;;
2966;SDS011;1493;51.496;7.210;2023-04-03T00:42:13;8.07;;;5.40;;
2966;SDS011;1493;51.496;7.210;2023-04-03T00:48:00;6.27;;;4.93;;
2966;SDS011;1493;51.496;7.210;2023-04-03T00:50:28;7.50;;;5.03;;
2966;SDS011;1493;51.496;7.210;2023-04-03T00:52:56;5.90;;;3.93;;
2966;SDS011;1493;51.496;7.210;2023-04-03T00:55:25;5.37;;;4.40;;
2966;SDS011;1493;51.496;7.210;2023-04-03T00:57:52;5.60;;;4.00;;
2966;SDS011;1493;51.496;7.210;2023-04-03T01:00:21;7.77;;;3.63;;
2966;SDS011;1493;51.496;7.210;2023-04-03T01:02:49;5.57;;;3.50;;
2966;SDS011;1493;51.496;7.210;2023-04-03T01:05:17;7.18;;;3.45;;
2966;SDS011;1493;51.496;7.210;2023-04-03T01:07:45;5.60;;;3.03;;
2966;SDS011;1493;51.496;7.210;2023-04-03T01:10:13;5.10;;;3.13;;
2966;SDS011;1493;51.496;7.210;2023-04-03T01:12:44;3.17;;;1.97;;
2966;SDS011;1493;51.496;7.210;2023-04-03T01:15:12;6.23;;;2.97;;
2966;SDS011;1493;51.496;7.210;2023-04-03T01:17:42;4.17;;;2.43;;
2966;SDS011;1493;51.496;7.210;2023-04-03T01:23:08;4.20;;;2.53;;
2966;SDS011;1493;51.496;7.210;2023-04-03T01:25:44;5.07;;;1.90;;
2966;SDS011;1493;51.496;7.210;2023-04-03T01:28:15;5.00;;;2.67;;
2966;SDS011;1493;51.496;7.210;2023-04-03T01:30:44;4.10;;;1.60;;
2966;SDS011;1493;51.496;7.210;2023-04-03T01:33:17;6.53;;;2.53;;
2966;SDS011;1493;51.496;7.210;2023-04-03T01:35:45;3.70;;;1.60;;
2966;SDS011;1493;51.496;7.210;2023-04-03T01:38:12;4.33;;;1.73;;
2966;SDS011;1493;51.496;7.210;2023-04-03T01:40:38;2.43;;;2.23;;
2966;SDS011;1493;51.496;7.210;2023-04-03T01:43:05;4.43;;;2.10;;
2966;SDS011;1493;51.496;7.210;2023-04-03T01:45:32;2.90;;;1.60;;
2966;SDS011;1493;51.496;7.210;2023-04-03T01:47:59;4.73;;;2.03;;
2966;SDS011;1493;51.496;7.210;2023-04-03T01:50:27;4.23;;;2.03;;
2966;SDS011;1493;51.496;7.210;2023-04-03T01:52:54;5.37;;;2.03;;
2966;SDS011;1493;51.496;7.210;2023-04-03T01:55:21;4.77;;;1.47;;
2966;SDS011;1493;51.496;7.210;2023-04-03T01:57:48;5.53;;;2.00;;
2966;SDS011;1493;51.496;7.210;2023-04-03T02:00:15;3.73;;;2.17;;
2966;SDS011;1493;51.496;7.210;2023-04-03T02:02:42;7.23;;;2.10;;
2966;SDS011;1493;51.496;7.210;2023-04-03T02:05:09;5.53;;;2.60;;
2966;SDS011;1493;51.496;7.210;2023-04-03T02:07:37;3.63;;;1.87;;
2966;SDS011;1493;51.496;7.210;2023-04-03T02:10:04;3.40;;;1.70;;
2966;SDS011;1493;51.496;7.210;2023-04-03T02:12:32;4.03;;;1.90;;
2966;SDS011;1493;51.496;7.210;2023-04-03T02:14:59;3.27;;;2.10;;
2966;SDS011;1493;51.496;7.210;2023-04-03T02:17:25;5.20;;;2.20;;
2966;SDS011;1493;51.496;7.210;2023-04-03T02:19:52;4.70;;;3.17;;
2966;SDS011;1493;51.496;7.210;2023-04-03T02:22:19;5.93;;;2.10;;
2966;SDS011;1493;51.496;7.210;2023-04-03T02:24:47;2.33;;;1.43;;
2966;SDS011;1493;51.496;7.210;2023-04-03T02:27:14;5.47;;;1.80;;
2966;SDS011;1493;51.496;7.210;2023-04-03T02:29:41;3.93;;;2.33;;
2966;SDS011;1493;51.496;7.210;2023-04-03T02:32:08;2.20;;;1.30;;
2966;SDS011;1493;51.496;7.210;2023-04-03T02:34:35;4.72;;;1.80;;
2966;SDS011;1493;51.496;7.210;2023-04-03T02:37:02;2.60;;;1.30;;
2966;SDS011;1493;51.496;7.210;2023-04-03T02:39:28;5.60;;;1.60;;
2966;SDS011;1493;51.496;7.210;2023-04-03T02:41:57;9.13;;;1.53;;
2966;SDS011;1493;51.496;7.210;2023-04-03T02:44:23;3.60;;;1.65;;
2966;SDS011;1493;51.496;7.210;2023-04-03T02:46:50;3.43;;;1.47;;
2966;SDS011;1493;51.496;7.210;2023-04-03T02:49:17;5.90;;;2.10;;
2966;SDS011;1493;51.496;7.210;2023-04-03T02:51:44;4.27;;;1.07;;
2966;SDS011;1493;51.496;7.210;2023-04-03T02:54:11;3.97;;;1.30;;
2966;SDS011;1493;51.496;7.210;2023-04-03T02:56:37;4.00;;;2.10;;
2966;SDS011;1493;51.496;7.210;2023-04-03T02:59:06;3.10;;;1.60;;
2966;SDS011;1493;51.496;7.210;2023-04-03T03:01:33;3.03;;;1.80;;
2966;SDS011;1493;51.496;7.210;2023-04-03T03:04:00;4.33;;;1.40;;
2966;SDS011;1493;51.496;7.210;2023-04-03T03:06:27;3.50;;;1.57;;
2966;SDS011;1493;51.496;7.210;2023-04-03T03:08:54;6.00;;;1.53;;
2966;SDS011;1493;51.496;7.210;2023-04-03T03:11:21;5.33;;;1.97;;
2966;SDS011;1493;51.496;7.210;2023-04-03T03:13:47;3.88;;;1.15;;
2966;SDS011;1493;51.496;7.210;2023-04-03T03:16:16;4.70;;;1.40;;
2966;SDS011;1493;51.496;7.210;2023-04-03T03:18:43;3.03;;;1.85;;
2966;SDS011;1493;51.496;7.210;2023-04-03T03:21:09;4.10;;;2.03;;
2966;SDS011;1493;51.496;7.210;2023-04-03T03:23:37;3.93;;;1.40;;
2966;SDS011;1493;51.496;7.210;2023-04-03T03:26:04;4.73;;;1.60;;
2966;SDS011;1493;51.496;7.210;2023-04-03T03:28:33;4.57;;;1.63;;
2966;SDS011;1493;51.496;7.210;2023-04-03T03:31:01;3.90;;;2.40;;
2966;SDS011;1493;51.496;7.210;2023-04-03T03:33:30;6.43;;;1.73;;
2966;SDS011;1493;51.496;7.210;2023-04-03T03:35:57;4.07;;;1.80;;
2966;SDS011;1493;51.496;7.210;2023-04-03T03:38:23;5.30;;;2.20;;
2966;SDS011;1493;51.496;7.210;2023-04-03T03:40:51;5.45;;;2.17;;
2966;SDS011;1493;51.496;7.210;2023-04-03T03:43:18;3.73;;;1.77;;
2966;SDS011;1493;51.496;7.210;2023-04-03T03:45:46;5.57;;;2.27;;
2966;SDS011;1493;51.496;7.210;2023-04-03T03:48:16;4.70;;;1.60;;
2966;SDS011;1493;51.496;7.210;2023-04-03T03:50:44;6.05;;;2.50;;
2966;SDS011;1493;51.496;7.210;2023-04-03T03:53:11;3.80;;;1.57;;
2966;SDS011;1493;51.496;7.210;2023-04-03T03:55:38;3.23;;;1.77;;
2966;SDS011;1493;51.496;7.210;2023-04-03T03:58:05;9.73;;;2.03;;
2966;SDS011;1493;51.496;7.210;2023-04-03T04:00:32;3.20;;;2.00;;
2966;SDS011;1493;51.496;7.210;2023-04-03T04:03:01;5.87;;;1.40;;
2966;SDS011;1493;51.496;7.210;2023-04-03T04:05:28;3.97;;;1.80;;
2966;SDS011;1493;51.496;7.210;2023-04-03T04:07:56;5.57;;;2.10;;
2966;SDS011;1493;51.496;7.210;2023-04-03T04:10:23;5.03;;;1.70;;
2966;SDS011;1493;51.496;7.210;2023-04-03T04:12:50;3.73;;;1.60;;
2966;SDS011;1493;51.496;7.210;2023-04-03T04:15:17;5.88;;;1.80;;
2966;SDS011;1493;51.496;7.210;2023-04-03T04:17:44;3.93;;;1.73;;
2966;SDS011;1493;51.496;7.210;2023-04-03T04:20:11;3.20;;;1.70;;
2966;SDS011;1493;51.496;7.210;2023-04-03T04:22:38;4.93;;;1.85;;
2966;SDS011;1493;51.496;7.210;2023-04-03T04:25:06;2.87;;;1.70;;
2966;SDS011;1493;51.496;7.210;2023-04-03T04:27:34;5.00;;;3.03;;
2966;SDS011;1493;51.496;7.210;2023-04-03T04:30:02;5.60;;;1.83;;
2966;SDS011;1493;51.496;7.210;2023-04-03T04:32:29;7.20;;;2.30;;
2966;SDS011;1493;51.496;7.210;2023-04-03T04:34:56;3.50;;;1.60;;
2966;SDS011;1493;51.496;7.210;2023-04-03T04:37:23;4.53;;;1.60;;
2966;SDS011;1493;51.496;7.210;2023-04-03T04:39:50;3.67;;;1.73;;
2966;SDS011;1493;51.496;7.210;2023-04-03T04:42:18;9.40;;;1.80;;
2966;SDS011;1493;51.496;7.210;2023-04-03T04:44:45;4.23;;;1.40;;
2966;SDS011;1493;51.496;7.210;2023-04-03T04:47:11;6.07;;;1.80;;
2966;SDS011;1493;51.496;7.210;2023-04-03T04:49:38;4.10;;;2.00;;
2966;SDS011;1493;51.496;7.210;2023-04-03T04:52:05;3.15;;;1.60;;
2966;SDS011;1493;51.496;7.210;2023-04-03T04:54:32;6.80;;;1.63;;
2966;SDS011;1493;51.496;7.210;2023-04-03T04:56:59;6.25;;;2.10;;
2966;SDS011;1493;51.496;7.210;2023-04-03T04:59:27;3.63;;;1.80;;
2966;SDS011;1493;51.496;7.210;2023-04-03T05:01:54;7.55;;;2.22;;
2966;SDS011;1493;51.496;7.210;2023-04-03T05:04:21;4.23;;;1.70;;
2966;SDS011;1493;51.496;7.210;2023-04-03T05:06:48;4.47;;;2.17;;
2966;SDS011;1493;51.496;7.210;2023-04-03T05:09:17;3.83;;;2.17;;
2966;SDS011;1493;51.496;7.210;2023-04-03T05:11:45;5.85;;;2.03;;
2966;SDS011;1493;51.496;7.210;2023-04-03T05:14:12;5.43;;;1.63;;
2966;SDS011;1493;51.496;7.210;2023-04-03T05:16:40;3.65;;;1.88;;
2966;SDS011;1493;51.496;7.210;2023-04-03T05:19:07;5.78;;;4.15;;
2966;SDS011;1493;51.496;7.210;2023-04-03T05:21:34;6.40;;;2.10;;
2966;SDS011;1493;51.496;7.210;2023-04-03T05:24:01;3.43;;;1.80;;
2966;SDS011;1493;51.496;7.210;2023-04-03T05:26:28;7.07;;;2.40;;
2966;SDS011;1493;51.496;7.210;2023-04-03T05:28:55;8.82;;;1.95;;
2966;SDS011;1493;51.496;7.210;2023-04-03T05:31:22;4.40;;;1.80;;
2966;SDS011;1493;51.496;7.210;2023-04-03T05:33:51;4.53;;;1.95;;
2966;SDS011;1493;51.496;7.210;2023-04-03T05:36:18;5.15;;;2.80;;
2966;SDS011;1493;51.496;7.210;2023-04-03T05:38:47;6.38;;;2.92;;
2966;SDS011;1493;51.496;7.210;2023-04-03T05:41:14;6.95;;;2.13;;
2966;SDS011;1493;51.496;7.210;2023-04-03T05:43:41;3.78;;;2.63;;
2966;SDS011;1493;51.496;7.210;2023-04-03T05:46:09;5.82;;;1.98;;
2966;SDS011;1493;51.496;7.210;2023-04-03T05:48:37;4.18;;;2.08;;
2966;SDS011;1493;51.496;7.210;2023-04-03T05:51:05;4.07;;;2.13;;
2966;SDS011;1493;51.496;7.210;2023-04-03T05:53:34;4.97;;;2.42;;
2966;SDS011;1493;51.496;7.210;2023-04-03T05:56:02;3.58;;;2.33;;
2966;SDS011;1493;51.496;7.210;2023-04-03T05:58:29;5.70;;;2.33;;
2966;SDS011;1493;51.496;7.210;2023-04-03T06:00:56;4.35;;;1.90;;
2966;SDS011;1493;51.496;7.210;2023-04-03T06:03:26;4.57;;;1.95;;
2966;SDS011;1493;51.496;7.210;2023-04-03T06:05:53;3.47;;;1.92;;
2966;SDS011;1493;51.496;7.210;2023-04-03T06:08:21;7.40;;;2.20;;
2966;SDS011;1493;51.496;7.210;2023-04-03T06:10:48;5.33;;;2.53;;
2966;SDS011;1493;51.496;7.210;2023-04-03T06:13:15;8.02;;;2.25;;
2966;SDS011;1493;51.496;7.210;2023-04-03T06:15:42;4.40;;;2.25;;
2966;SDS011;1493;51.496;7.210;2023-04-03T06:18:09;4.33;;;2.57;;
2966;SDS011;1493;51.496;7.210;2023-04-03T06:20:36;10.68;;;2.50;;
2966;SDS011;1493;51.496;7.210;2023-04-03T06:23:03;5.65;;;2.22;;
2966;SDS011;1493;51.496;7.210;2023-04-03T06:25:31;4.50;;;1.90;;
2966;SDS011;1493;51.496;7.210;2023-04-03T06:27:58;7.50;;;2.57;;
2966;SDS011;1493;51.496;7.210;2023-04-03T06:30:25;4.35;;;2.30;;
2966;SDS011;1493;51.496;7.210;2023-04-03T06:32:52;2.50;;;1.35;;
2966;SDS011;1493;51.496;7.210;2023-04-03T06:35:20;3.53;;;1.87;;
2966;SDS011;1493;51.496;7.210;2023-04-03T06:37:48;5.40;;;2.10;;
2966;SDS011;1493;51.496;7.210;2023-04-03T06:40:15;3.50;;;1.83;;
2966;SDS011;1493;51.496;7.210;2023-04-03T06:42:49;5.33;;;2.70;;
2966;SDS011;1493;51.496;7.210;2023-04-03T06:45:22;8.20;;;2.43;;
2966;SDS011;1493;51.496;7.210;2023-04-03T06:47:50;6.63;;;2.77;;
2966;SDS011;1493;51.496;7.210;2023-04-03T06:50:17;4.22;;;1.88;;
2966;SDS011;1493;51.496;7.210;2023-04-03T06:52:44;3.00;;;1.77;;
2966;SDS011;1493;51.496;7.210;2023-04-03T06:55:11;4.40;;;1.93;;
2966;SDS011;1493;51.496;7.210;2023-04-03T06:57:38;10.10;;;2.10;;
2966;SDS011;1493;51.496;7.210;2023-04-03T07:00:07;6.90;;;2.20;;
2966;SDS011;1493;51.496;7.210;2023-04-03T07:02:35;2.70;;;1.53;;
2966;SDS011;1493;51.496;7.210;2023-04-03T07:05:02;5.40;;;2.47;;
2966;SDS011;1493;51.496;7.210;2023-04-03T07:07:29;7.43;;;1.70;;
2966;SDS011;1493;51.496;7.210;2023-04-03T07:09:56;4.10;;;1.60;;
2966;SDS011;1493;51.496;7.210;2023-04-03T07:12:23;4.50;;;1.87;;
2966;SDS011;1493;51.496;7.210;2023-04-03T07:14:50;2.87;;;1.57;;
2966;SDS011;1493;51.496;7.210;2023-04-03T07:17:18;3.37;;;1.80;;
2966;SDS011;1493;51.496;7.210;2023-04-03T07:19:45;5.93;;;2.13;;
2966;SDS011;1493;51.496;7.210;2023-04-03T07:22:12;5.87;;;1.80;;
2966;SDS011;1493;51.496;7.210;2023-04-03T07:24:39;3.77;;;1.53;;
2966;SDS011;1493;51.496;7.210;2023-04-03T07:27:07;5.70;;;1.50;;
2966;SDS011;1493;51.496;7.210;2023-04-03T07:29:34;4.80;;;1.83;;
2966;SDS011;1493;51.496;7.210;2023-04-03T07:32:00;6.40;;;1.77;;
2966;SDS011;1493;51.496;7.210;2023-04-03T07:34:29;2.80;;;1.73;;
2966;SDS011;1493;51.496;7.210;2023-04-03T07:36:57;6.53;;;1.90;;
2966;SDS011;1493;51.496;7.210;2023-04-03T07:39:26;4.47;;;1.77;;
2966;SDS011;1493;51.496;7.210;2023-04-03T07:41:53;8.07;;;1.60;;
2966;SDS011;1493;51.496;7.210;2023-04-03T07:44:20;8.80;;;2.10;;
2966;SDS011;1493;51.496;7.210;2023-04-03T07:46:47;3.50;;;1.63;;
2966;SDS011;1493;51.496;7.210;2023-04-03T07:49:15;3.73;;;1.67;;
2966;SDS011;1493;51.496;7.210;2023-04-03T07:51:44;2.50;;;1.63;;
2966;SDS011;1493;51.496;7.210;2023-04-03T07:54:11;5.83;;;1.53;;
2966;SDS011;1493;51.496;7.210;2023-04-03T07:56:38;3.33;;;1.67;;
2966;SDS011;1493;51.496;7.210;2023-04-03T07:59:05;5.43;;;2.20;;
2966;SDS011;1493;51.496;7.210;2023-04-03T08:01:32;3.30;;;1.30;;
2966;SDS011;1493;51.496;7.210;2023-04-03T08:03:59;5.40;;;1.30;;
2966;SDS011;1493;51.496;7.210;2023-04-03T08:06:26;3.80;;;1.20;;
2966;SDS011;1493;51.496;7.210;2023-04-03T08:08:55;8.60;;;2.17;;
2966;SDS011;1493;51.496;7.210;2023-04-03T08:11:22;5.50;;;1.30;;
2966;SDS011;1493;51.496;7.210;2023-04-03T08:13:51;3.17;;;1.37;;
2966;SDS011;1493;51.496;7.210;2023-04-03T08:16:19;2.70;;;1.30;;
2966;SDS011;1493;51.496;7.210;2023-04-03T08:18:47;4.40;;;2.07;;
2966;SDS011;1493;51.496;7.210;2023-04-03T08:21:15;4.87;;;1.57;;
2966;SDS011;1493;51.496;7.210;2023-04-03T08:23:42;12.10;;;2.33;;
2966;SDS011;1493;51.496;7.210;2023-04-03T08:26:10;5.53;;;1.83;;
2966;SDS011;1493;51.496;7.210;2023-04-03T08:28:38;4.90;;;1.80;;
2966;SDS011;1493;51.496;7.210;2023-04-03T08:31:05;6.80;;;1.50;;
2966;SDS011;1493;51.496;7.210;2023-04-03T08:33:38;5.07;;;1.47;;
2966;SDS011;1493;51.496;7.210;2023-04-03T08:36:06;3.50;;;1.63;;
2966;SDS011;1493;51.496;7.210;2023-04-03T08:38:34;4.07;;;1.07;;
2966;SDS011;1493;51.496;7.210;2023-04-03T08:41:04;5.33;;;1.80;;
2966;SDS011;1493;51.496;7.210;2023-04-03T08:43:41;3.40;;;1.27;;
2966;SDS011;1493;51.496;7.210;2023-04-03T08:46:17;3.50;;;1.60;;
2966;SDS011;1493;51.496;7.210;2023-04-03T08:48:48;6.50;;;1.70;;
2966;SDS011;1493;51.496;7.210;2023-04-03T08:51:17;4.00;;;1.40;;
2966;SDS011;1493;51.496;7.210;2023-04-03T08:53:47;4.43;;;1.40;;
2966;SDS011;1493;51.496;7.210;2023-04-03T08:56:21;3.80;;;1.10;;
2966;SDS011;1493;51.496;7.210;2023-04-03T08:58:50;3.60;;;1.70;;
2966;SDS011;1493;51.496;7.210;2023-04-03T09:01:23;4.43;;;1.23;;
2966;SDS011;1493;51.496;7.210;2023-04-03T09:03:53;4.73;;;1.27;;
2966;SDS011;1493;51.496;7.210;2023-04-03T09:06:21;3.77;;;1.47;;
2966;SDS011;1493;51.496;7.210;2023-04-03T09:08:53;3.50;;;1.33;;
2966;SDS011;1493;51.496;7.210;2023-04-03T09:11:33;2.23;;;1.20;;
2966;SDS011;1493;51.496;7.210;2023-04-03T09:14:13;4.07;;;1.30;;
2966;SDS011;1493;51.496;7.210;2023-04-03T09:16:48;3.23;;;1.30;;
2966;SDS011;1493;51.496;7.210;2023-04-03T09:19:19;3.60;;;1.17;;
2966;SDS011;1493;51.496;7.210;2023-04-03T09:21:50;2.63;;;1.40;;
2966;SDS011;1493;51.496;7.210;2023-04-03T09:24:16;2.27;;;1.10;;
2966;SDS011;1493;51.496;7.210;2023-04-03T09:26:45;3.93;;;1.60;;
2966;SDS011;1493;51.496;7.210;2023-04-03T09:29:20;2.17;;;1.13;;
2966;SDS011;1493;51.496;7.210;2023-04-03T09:31:49;3.17;;;1.20;;
2966;SDS011;1493;51.496;7.210;2023-04-03T09:34:20;3.43;;;1.20;;
2966;SDS011;1493;51.496;7.210;2023-04-03T09:36:51;9.60;;;1.20;;
2966;SDS011;1493;51.496;7.210;2023-04-03T09:39:21;3.60;;;1.50;;
2966;SDS011;1493;51.496;7.210;2023-04-03T09:41:57;2.83;;;1.20;;
2966;SDS011;1493;51.496;7.210;2023-04-03T09:44:28;3.53;;;1.50;;
2966;SDS011;1493;51.496;7.210;2023-04-03T09:47:16;6.27;;;1.20;;
2966;SDS011;1493;51.496;7.210;2023-04-03T09:49:45;3.97;;;1.40;;
2966;SDS011;1493;51.496;7.210;2023-04-03T09:52:18;4.20;;;1.40;;
2966;SDS011;1493;51.496;7.210;2023-04-03T09:54:47;3.63;;;1.37;;
2966;SDS011;1493;51.496;7.210;2023-04-03T09:57:13;4.50;;;1.67;;
2966;SDS011;1493;51.496;7.210;2023-04-03T09:59:44;3.63;;;1.33;;
2966;SDS011;1493;51.496;7.210;2023-04-03T10:02:21;2.87;;;1.20;;
2966;SDS011;1493;51.496;7.210;2023-04-03T10:04:54;3.80;;;1.50;;
2966;SDS011;1493;51.496;7.210;2023-04-03T10:07:25;3.03;;;1.20;;
2966;SDS011;1493;51.496;7.210;2023-04-03T10:09:54;2.97;;;1.20;;
2966;SDS011;1493;51.496;7.210;2023-04-03T10:12:23;3.07;;;1.27;;
2966;SDS011;1493;51.496;7.210;2023-04-03T10:14:55;3.30;;;1.40;;
2966;SDS011;1493;51.496;7.210;2023-04-03T10:17:24;6.10;;;2.33;;
2966;SDS011;1493;51.496;7.210;2023-04-03T10:20:05;6.30;;;1.33;;
2966;SDS011;1493;51.496;7.210;2023-04-03T10:22:40;4.27;;;1.20;;
2966;SDS011;1493;51.496;7.210;2023-04-03T10:25:15;3.13;;;1.20;;
2966;SDS011;1493;51.496;7.210;2023-04-03T10:27:49;4.00;;;1.80;;
2966;SDS011;1493;51.496;7.210;2023-04-03T10:30:27;3.93;;;1.80;;
2966;SDS011;1493;51.496;7.210;2023-04-03T10:36:07;4.47;;;1.57;;
2966;SDS011;1493;51.496;7.210;2023-04-03T10:38:44;3.13;;;1.37;;
2966;SDS011;1493;51.496;7.210;2023-04-03T10:41:17;2.20;;;1.20;;
2966;SDS011;1493;51.496;7.210;2023-04-03T10:43:54;4.97;;;1.40;;
2966;SDS011;1493;51.496;7.210;2023-04-03T10:46:31;3.00;;;1.30;;
2966;SDS011;1493;51.496;7.210;2023-04-03T10:49:06;3.73;;;1.43;;
2966;SDS011;1493;51.496;7.210;2023-04-03T10:51:42;4.47;;;1.30;;
2966;SDS011;1493;51.496;7.210;2023-04-03T10:54:11;4.17;;;1.57;;
2966;SDS011;1493;51.496;7.210;2023-04-03T10:56:44;3.53;;;1.37;;
2966;SDS011;1493;51.496;7.210;2023-04-03T10:59:18;3.92;;;1.38;;
2966;SDS011;1493;51.496;7.210;2023-04-03T11:01:54;2.03;;;1.23;;
2966;SDS011;1493;51.496;7.210;2023-04-03T11:04:24;2.30;;;1.23;;
2966;SDS011;1493;51.496;7.210;2023-04-03T11:07:00;5.03;;;1.37;;
2966;SDS011;1493;51.496;7.210;2023-04-03T11:09:31;2.13;;;1.20;;
2966;SDS011;1493;51.496;7.210;2023-04-03T11:12:03;6.07;;;2.07;;
2966;SDS011;1493;51.496;7.210;2023-04-03T11:14:36;3.40;;;1.07;;
2966;SDS011;1493;51.496;7.210;2023-04-03T11:17:08;5.20;;;1.53;;
2966;SDS011;1493;51.496;7.210;2023-04-03T11:19:49;2.50;;;1.00;;
2966;SDS011;1493;51.496;7.210;2023-04-03T11:22:26;5.00;;;1.13;;
2966;SDS011;1493;51.496;7.210;2023-04-03T11:24:58;3.13;;;1.23;;
2966;SDS011;1493;51.496;7.210;2023-04-03T11:27:30;4.00;;;1.50;;
2966;SDS011;1493;51.496;7.210;2023-04-03T11:30:05;4.13;;;1.30;;
2966;SDS011;1493;51.496;7.210;2023-04-03T11:32:42;1.93;;;1.10;;
2966;SDS011;1493;51.496;7.210;2023-04-03T11:35:41;5.23;;;1.30;;
2966;SDS011;1493;51.496;7.210;2023-04-03T11:38:13;4.20;;;1.53;;
2966;SDS011;1493;51.496;7.210;2023-04-03T11:40:47;4.07;;;1.30;;
2966;SDS011;1493;51.496;7.210;2023-04-03T11:43:21;8.03;;;1.50;;
2966;SDS011;1493;51.496;7.210;2023-04-03T11:45:52;3.40;;;1.17;;
2966;SDS011;1493;51.496;7.210;2023-04-03T11:48:49;3.00;;;1.00;;
2966;SDS011;1493;51.496;7.210;2023-04-03T12:09:35;2.30;;;1.00;;
2966;SDS011;1493;51.496;7.210;2023-04-03T12:12:33;2.70;;;1.43;;
2966;SDS011;1493;51.496;7.210;2023-04-03T12:15:26;2.47;;;1.17;;
2966;SDS011;1493;51.496;7.210;2023-04-03T12:21:17;3.30;;;1.20;;
2966;SDS011;1493;51.496;7.210;2023-04-03T12:24:22;2.63;;;1.10;;
2966;SDS011;1493;51.496;7.210;2023-04-03T12:27:01;2.43;;;1.20;;
2966;SDS011;1493;51.496;7.210;2023-04-03T12:29:33;3.07;;;1.20;;
2966;SDS011;1493;51.496;7.210;2023-04-03T12:32:08;2.93;;;1.23;;
2966;SDS011;1493;51.496;7.210;2023-04-03T12:37:40;4.60;;;1.47;;
2966;SDS011;1493;51.496;7.210;2023-04-03T12:40:24;2.07;;;1.00;;
2966;SDS011;1493;51.496;7.210;2023-04-03T12:43:00;4.43;;;1.50;;
2966;SDS011;1493;51.496;7.210;2023-04-03T12:45:40;2.53;;;0.90;;
2966;SDS011;1493;51.496;7.210;2023-04-03T12:48:12;1.83;;;1.00;;
2966;SDS011;1493;51.496;7.210;2023-04-03T12:50:42;4.87;;;1.80;;
2966;SDS011;1493;51.496;7.210;2023-04-03T12:53:12;3.03;;;1.23;;
2966;SDS011;1493;51.496;7.210;2023-04-03T12:55:42;3.70;;;1.20;;
2966;SDS011;1493;51.496;7.210;2023-04-03T12:58:21;2.43;;;1.27;;
2966;SDS011;1493;51.496;7.210;2023-04-03T13:00:58;4.63;;;1.90;;
2966;SDS011;1493;51.496;7.210;2023-04-03T13:03:27;5.13;;;1.50;;
2966;SDS011;1493;51.496;7.210;2023-04-03T13:05:56;2.63;;;1.20;;
2966;SDS011;1493;51.496;7.210;2023-04-03T13:08:26;2.93;;;1.20;;
2966;SDS011;1493;51.496;7.210;2023-04-03T13:10:56;2.33;;;1.13;;
2966;SDS011;1493;51.496;7.210;2023-04-03T13:13:28;3.23;;;1.53;;
2966;SDS011;1493;51.496;7.210;2023-04-03T13:15:56;3.00;;;1.10;;
2966;SDS011;1493;51.496;7.210;2023-04-03T13:18:24;3.60;;;1.40;;
2966;SDS011;1493;51.496;7.210;2023-04-03T13:20:53;3.60;;;1.10;;
2966;SDS011;1493;51.496;7.210;2023-04-03T13:23:23;3.40;;;1.20;;
2966;SDS011;1493;51.496;7.210;2023-04-03T13:25:50;5.93;;;1.13;;
2966;SDS011;1493;51.496;7.210;2023-04-03T13:28:23;2.70;;;1.00;;
2966;SDS011;1493;51.496;7.210;2023-04-03T13:30:57;2.10;;;1.10;;
2966;SDS011;1493;51.496;7.210;2023-04-03T13:33:30;2.20;;;1.57;;
2966;SDS011;1493;51.496;7.210;2023-04-03T13:36:00;2.37;;;0.90;;
2966;SDS011;1493;51.496;7.210;2023-04-03T13:38:30;3.90;;;1.10;;
2966;SDS011;1493;51.496;7.210;2023-04-03T13:40:59;3.20;;;1.30;;
2966;SDS011;1493;51.496;7.210;2023-04-03T13:43:28;2.60;;;1.07;;
2966;SDS011;1493;51.496;7.210;2023-04-03T13:46:04;3.13;;;1.50;;
2966;SDS011;1493;51.496;7.210;2023-04-03T13:48:48;5.10;;;1.30;;
2966;SDS011;1493;51.496;7.210;2023-04-03T13:51:20;3.30;;;1.00;;
2966;SDS011;1493;51.496;7.210;2023-04-03T13:53:50;3.30;;;1.30;;
2966;SDS011;1493;51.496;7.210;2023-04-03T13:56:21;2.60;;;1.10;;
2966;SDS011;1493;51.496;7.210;2023-04-03T13:58:53;3.37;;;1.30;;
2966;SDS011;1493;51.496;7.210;2023-04-03T14:01:23;4.20;;;1.43;;
2966;SDS011;1493;51.496;7.210;2023-04-03T14:03:55;2.63;;;1.00;;
2966;SDS011;1493;51.496;7.210;2023-04-03T14:06:23;6.63;;;1.37;;
2966;SDS011;1493;51.496;7.210;2023-04-03T14:08:51;2.50;;;1.00;;
2966;SDS011;1493;51.496;7.210;2023-04-03T14:11:18;2.50;;;1.30;;
2966;SDS011;1493;51.496;7.210;2023-04-03T14:13:47;4.53;;;1.80;;
2966;SDS011;1493;51.496;7.210;2023-04-03T14:16:16;2.73;;;1.10;;
2966;SDS011;1493;51.496;7.210;2023-04-03T14:18:47;3.13;;;0.93;;
2966;SDS011;1493;51.496;7.210;2023-04-03T14:21:16;3.83;;;1.27;;
2966;SDS011;1493;51.496;7.210;2023-04-03T14:23:45;2.00;;;0.87;;
2966;SDS011;1493;51.496;7.210;2023-04-03T14:26:12;2.07;;;1.17;;
2966;SDS011;1493;51.496;7.210;2023-04-03T14:28:42;3.60;;;1.30;;
2966;SDS011;1493;51.496;7.210;2023-04-03T14:31:10;7.53;;;1.63;;
2966;SDS011;1493;51.496;7.210;2023-04-03T14:33:37;2.83;;;1.37;;
2966;SDS011;1493;51.496;7.210;2023-04-03T14:36:12;2.87;;;1.10;;
2966;SDS011;1493;51.496;7.210;2023-04-03T14:38:40;6.57;;;1.40;;
2966;SDS011;1493;51.496;7.210;2023-04-03T14:41:10;9.47;;;1.47;;
2966;SDS011;1493;51.496;7.210;2023-04-03T14:43:38;2.17;;;0.93;;
2966;SDS011;1493;51.496;7.210;2023-04-03T14:46:05;4.03;;;1.07;;
2966;SDS011;1493;51.496;7.210;2023-04-03T14:48:38;3.70;;;1.40;;
2966;SDS011;1493;51.496;7.210;2023-04-03T14:51:05;3.10;;;1.40;;
2966;SDS011;1493;51.496;7.210;2023-04-03T14:53:33;2.73;;;1.50;;
2966;SDS011;1493;51.496;7.210;2023-04-03T14:56:01;2.70;;;1.30;;
2966;SDS011;1493;51.496;7.210;2023-04-03T14:58:27;4.80;;;1.00;;
2966;SDS011;1493;51.496;7.210;2023-04-03T15:00:54;4.20;;;1.30;;
2966;SDS011;1493;51.496;7.210;2023-04-03T15:03:21;3.10;;;1.23;;
2966;SDS011;1493;51.496;7.210;2023-04-03T15:05:49;3.30;;;1.30;;
2966;SDS011;1493;51.496;7.210;2023-04-03T15:08:17;3.40;;;1.10;;
2966;SDS011;1493;51.496;7.210;2023-04-03T15:10:47;4.70;;;1.30;;
2966;SDS011;1493;51.496;7.210;2023-04-03T15:13:15;3.70;;;1.40;;
2966;SDS011;1493;51.496;7.210;2023-04-03T15:15:42;3.50;;;1.20;;
2966;SDS011;1493;51.496;7.210;2023-04-03T15:18:14;2.70;;;1.23;;
2966;SDS011;1493;51.496;7.210;2023-04-03T15:20:43;4.67;;;1.30;;
2966;SDS011;1493;51.496;7.210;2023-04-03T15:23:11;4.03;;;1.00;;
2966;SDS011;1493;51.496;7.210;2023-04-03T15:25:40;4.43;;;1.47;;
2966;SDS011;1493;51.496;7.210;2023-04-03T15:28:09;3.37;;;1.47;;
2966;SDS011;1493;51.496;7.210;2023-04-03T15:30:45;2.97;;;1.37;;
2966;SDS011;1493;51.496;7.210;2023-04-03T15:33:12;3.30;;;1.00;;
2966;SDS011;1493;51.496;7.210;2023-04-03T15:35:40;2.63;;;1.17;;
2966;SDS011;1493;51.496;7.210;2023-04-03T15:38:07;5.40;;;1.20;;
2966;SDS011;1493;51.496;7.210;2023-04-03T15:40:35;2.50;;;1.20;;
2966;SDS011;1493;51.496;7.210;2023-04-03T15:43:02;4.23;;;1.20;;
2966;SDS011;1493;51.496;7.210;2023-04-03T15:45:31;5.83;;;1.40;;
2966;SDS011;1493;51.496;7.210;2023-04-03T15:47:59;2.90;;;1.00;;
2966;SDS011;1493;51.496;7.210;2023-04-03T15:50:27;2.60;;;1.30;;
2966;SDS011;1493;51.496;7.210;2023-04-03T15:52:54;5.47;;;1.90;;
2966;SDS011;1493;51.496;7.210;2023-04-03T15:55:23;2.70;;;1.27;;
2966;SDS011;1493;51.496;7.210;2023-04-03T15:57:51;3.13;;;1.33;;
2966;SDS011;1493;51.496;7.210;2023-04-03T16:00:18;2.13;;;0.93;;
2966;SDS011;1493;51.496;7.210;2023-04-03T16:02:49;3.13;;;1.40;;